CDT,Max TemperatureF,Mean TemperatureF,Min TemperatureF,Max Dew PointF,MeanDew PointF,Min DewpointF,Max Humidity, Mean Humidity, Min Humidity, Max Sea Level PressureIn, Mean Sea Level PressureIn, Min Sea Level PressureIn, Max VisibilityMiles, Mean VisibilityMiles, Min VisibilityMiles, Max Wind SpeedMPH, Mean Wind SpeedMPH, Max Gust SpeedMPH,PrecipitationIn, CloudCover, Events, WindDirDegrees
2011-10-1,67,56,44,42,38,34,89,61,32,30.19,30.12,30.01,10,10,10,18,7,29,0.00,0,,351
2011-10-2,72,56,39,41,37,31,92,58,23,30.22,30.17,30.14,10,10,10,14,5,20,0.00,0,,1
2011-10-3,78,58,38,44,38,32,92,56,20,30.27,30.21,30.17,10,10,10,12,3,15,0.00,0,Fog,345
2011-10-4,82,62,42,49,45,40,92,59,25,30.31,30.24,30.19,10,10,10,9,3,14,0.00,0,,36
2011-10-5,83,65,47,56,51,46,93,62,31,30.28,30.21,30.16,10,10,10,14,2,24,0.00,0,,123
2011-10-6,84,69,54,56,54,51,86,60,34,30.28,30.22,30.18,10,10,10,12,6,17,0.00,2,,98
2011-10-7,81,69,57,56,53,51,84,62,39,30.37,30.30,30.25,10,10,10,14,8,18,0.00,0,,106
2011-10-8,81,69,57,55,52,48,78,59,39,30.37,30.31,30.25,10,10,10,21,9,25,0.00,1,,113
2011-10-9,79,67,54,54,51,46,77,60,43,30.30,30.23,30.15,10,10,10,17,7,22,0.00,5,,103
2011-10-10,81,72,63,59,57,54,78,62,45,30.14,30.07,30.00,10,10,8,20,7,24,0.01,6,Rain,102
2011-10-11,68,65,62,63,61,57,93,87,81,30.00,29.95,29.90,10,7,2,14,5,18,0.13,8,Rain,53
2011-10-12,68,64,60,63,60,57,97,88,78,29.92,29.84,29.76,10,8,2,7,2,10,0.02,8,Fog-Rain,165
2011-10-13,73,63,53,61,58,52,93,70,46,29.78,29.70,29.64,10,8,1,20,8,29,0.34,7,Rain,234
2011-10-14,79,64,49,52,46,39,93,60,26,29.98,29.90,29.78,10,10,10,21,5,30,0.00,1,Fog,267
2011-10-15,77,63,48,48,42,34,93,57,21,30.13,30.08,29.99,10,10,10,14,4,18,0.00,0,,309
2011-10-16,85,65,45,50,47,42,86,57,27,30.16,30.07,29.99,10,10,10,16,6,22,0.00,0,,176
2011-10-17,87,70,53,56,53,50,89,60,30,30.00,29.91,29.80,10,10,10,13,5,24,0.00,1,,173
2011-10-18,80,65,49,62,55,46,93,74,54,29.79,29.68,29.55,10,10,9,20,9,24,0.11,6,Rain-Thunderstorm,228
2011-10-19,53,50,47,46,41,38,93,76,59,29.82,29.69,29.61,10,10,4,22,12,30,0.01,8,Rain,300
2011-10-20,60,50,39,40,37,34,82,60,37,30.09,29.93,29.83,10,10,10,17,8,26,0.00,4,,264
2011-10-21,65,50,35,40,35,32,92,62,32,30.21,30.15,30.10,10,10,10,14,3,17,0.00,0,,338
2011-10-22,70,52,33,41,35,30,100,62,24,30.22,30.16,30.09,10,8,1,10,2,18,0.00,1,Fog,69
2011-10-23,69,54,38,50,41,35,92,62,32,30.14,30.10,30.06,10,10,10,13,3,16,T,5,Rain,129
2011-10-24,76,61,46,50,47,45,93,65,36,30.22,30.16,30.11,10,10,8,9,3,15,0.00,1,Fog,289
2011-10-25,79,61,43,51,44,38,93,58,23,30.27,30.18,30.09,10,9,6,9,4,13,0.00,0,Fog,140
2011-10-26,78,62,46,48,44,41,86,58,29,30.10,30.02,29.94,10,10,10,21,6,25,0.00,2,,161
2011-10-27,70,60,50,56,50,45,89,75,61,30.02,29.96,29.89,10,8,2,16,7,21,0.02,6,Rain,4
2011-10-28,52,47,41,47,45,38,93,85,76,30.12,30.02,29.96,10,7,2,15,9,20,0.71,8,Rain,10
2011-10-29,61,46,31,38,35,30,96,66,36,30.23,30.16,30.12,10,9,4,14,4,17,0.00,0,,342
2011-10-30,62,48,33,38,34,30,92,62,32,30.31,30.23,30.18,10,10,9,13,5,17,0.00,2,,137
2011-10-31,67,52,37,37,35,32,85,57,28,30.24,30.20,30.16,10,10,10,13,4,17,0.00,2,,146